sensor_id;sensor_type;location;lat;lon;timestamp;P1;durP1;ratioP1;P2;durP2;ratioP2
78893;SDS011;68282;42.698;23.350;2024-02-04T00:01:50;21.90;;;8.43;;
78893;SDS011;68282;42.698;23.350;2024-02-04T00:04:16;6.57;;;4.03;;
78893;SDS011;68282;42.698;23.350;2024-02-04T00:06:41;5.25;;;3.63;;
78893;SDS011;68282;42.698;23.350;2024-02-04T00:09:07;5.93;;;3.60;;
78893;SDS011;68282;42.698;23.350;2024-02-04T00:11:33;7.10;;;3.55;;
78893;SDS011;68282;42.698;23.350;2024-02-04T00:13:59;5.95;;;3.10;;
78893;SDS011;68282;42.698;23.350;2024-02-04T00:16:25;3.90;;;2.25;;
78893;SDS011;68282;42.698;23.350;2024-02-04T00:18:52;5.40;;;3.03;;
78893;SDS011;68282;42.698;23.350;2024-02-04T00:21:18;5.32;;;3.40;;
78893;SDS011;68282;42.698;23.350;2024-02-04T00:23:44;6.47;;;2.90;;
78893;SDS011;68282;42.698;23.350;2024-02-04T00:26:10;5.38;;;2.50;;
78893;SDS011;68282;42.698;23.350;2024-02-04T00:28:35;4.15;;;3.28;;
78893;SDS011;68282;42.698;23.350;2024-02-04T00:31:01;4.43;;;3.00;;
78893;SDS011;68282;42.698;23.350;2024-02-04T00:33:27;5.50;;;3.42;;
78893;SDS011;68282;42.698;23.350;2024-02-04T00:35:52;5.30;;;3.50;;
78893;SDS011;68282;42.698;23.350;2024-02-04T00:38:18;4.45;;;3.00;;
78893;SDS011;68282;42.698;23.350;2024-02-04T00:40:43;6.22;;;3.63;;
78893;SDS011;68282;42.698;23.350;2024-02-04T00:43:09;6.35;;;3.83;;
78893;SDS011;68282;42.698;23.350;2024-02-04T00:45:35;4.32;;;3.13;;
78893;SDS011;68282;42.698;23.350;2024-02-04T00:48:00;4.38;;;2.88;;
78893;SDS011;68282;42.698;23.350;2024-02-04T00:50:26;9.05;;;3.47;;
78893;SDS011;68282;42.698;23.350;2024-02-04T00:52:51;5.22;;;3.45;;
78893;SDS011;68282;42.698;23.350;2024-02-04T00:55:20;4.80;;;3.25;;
78893;SDS011;68282;42.698;23.350;2024-02-04T00:57:45;5.20;;;2.92;;
78893;SDS011;68282;42.698;23.350;2024-02-04T01:00:12;4.28;;;3.15;;
78893;SDS011;68282;42.698;23.350;2024-02-04T01:02:38;5.10;;;3.40;;
78893;SDS011;68282;42.698;23.350;2024-02-04T01:05:04;4.63;;;2.95;;
78893;SDS011;68282;42.698;23.350;2024-02-04T01:07:30;5.22;;;3.08;;
78893;SDS011;68282;42.698;23.350;2024-02-04T01:09:56;4.85;;;3.45;;
78893;SDS011;68282;42.698;23.350;2024-02-04T01:12:21;4.15;;;2.42;;
78893;SDS011;68282;42.698;23.350;2024-02-04T01:14:47;4.43;;;3.53;;
78893;SDS011;68282;42.698;23.350;2024-02-04T01:17:13;4.95;;;3.25;;
78893;SDS011;68282;42.698;23.350;2024-02-04T01:19:38;6.30;;;3.35;;
78893;SDS011;68282;42.698;23.350;2024-02-04T01:22:04;6.70;;;3.53;;
78893;SDS011;68282;42.698;23.350;2024-02-04T01:24:30;6.07;;;3.70;;
78893;SDS011;68282;42.698;23.350;2024-02-04T01:26:56;6.53;;;3.75;;
78893;SDS011;68282;42.698;23.350;2024-02-04T01:29:22;4.13;;;2.70;;
78893;SDS011;68282;42.698;23.350;2024-02-04T01:31:47;6.60;;;3.17;;
78893;SDS011;68282;42.698;23.350;2024-02-04T01:34:13;4.25;;;2.85;;
78893;SDS011;68282;42.698;23.350;2024-02-04T01:36:38;6.95;;;2.75;;
78893;SDS011;68282;42.698;23.350;2024-02-04T01:39:04;6.57;;;2.75;;
78893;SDS011;68282;42.698;23.350;2024-02-04T01:41:30;5.43;;;3.08;;
78893;SDS011;68282;42.698;23.350;2024-02-04T01:43:56;4.57;;;3.15;;
78893;SDS011;68282;42.698;23.350;2024-02-04T01:46:21;5.07;;;2.65;;
78893;SDS011;68282;42.698;23.350;2024-02-04T01:48:47;6.25;;;2.78;;
78893;SDS011;68282;42.698;23.350;2024-02-04T01:51:14;4.97;;;2.83;;
78893;SDS011;68282;42.698;23.350;2024-02-04T01:53:42;4.45;;;2.67;;
78893;SDS011;68282;42.698;23.350;2024-02-04T01:56:10;7.20;;;2.83;;
78893;SDS011;68282;42.698;23.350;2024-02-04T01:58:39;5.38;;;3.38;;
78893;SDS011;68282;42.698;23.350;2024-02-04T02:01:05;5.47;;;2.70;;
78893;SDS011;68282;42.698;23.350;2024-02-04T02:03:30;7.57;;;2.95;;
78893;SDS011;68282;42.698;23.350;2024-02-04T02:05:56;9.23;;;2.80;;
78893;SDS011;68282;42.698;23.350;2024-02-04T02:08:22;4.15;;;3.15;;
78893;SDS011;68282;42.698;23.350;2024-02-04T02:10:48;4.97;;;2.92;;
78893;SDS011;68282;42.698;23.350;2024-02-04T02:13:22;3.92;;;2.90;;
78893;SDS011;68282;42.698;23.350;2024-02-04T02:15:56;5.32;;;3.20;;
78893;SDS011;68282;42.698;23.350;2024-02-04T02:24:48;3.97;;;2.90;;
78893;SDS011;68282;42.698;23.350;2024-02-04T02:26:53;5.43;;;2.80;;
78893;SDS011;68282;42.698;23.350;2024-02-04T02:29:19;6.55;;;3.42;;
78893;SDS011;68282;42.698;23.350;2024-02-04T02:31:44;7.45;;;3.20;;
78893;SDS011;68282;42.698;23.350;2024-02-04T02:34:11;5.03;;;2.70;;
78893;SDS011;68282;42.698;23.350;2024-02-04T02:36:39;4.72;;;2.70;;
78893;SDS011;68282;42.698;23.350;2024-02-04T02:41:57;3.50;;;2.55;;
78893;SDS011;68282;42.698;23.350;2024-02-04T02:44:27;4.97;;;2.78;;
78893;SDS011;68282;42.698;23.350;2024-02-04T02:46:54;4.65;;;2.50;;
78893;SDS011;68282;42.698;23.350;2024-02-04T02:49:22;3.95;;;2.40;;
78893;SDS011;68282;42.698;23.350;2024-02-04T02:51:48;9.43;;;2.63;;
78893;SDS011;68282;42.698;23.350;2024-02-04T02:54:14;5.88;;;2.47;;
78893;SDS011;68282;42.698;23.350;2024-02-04T02:56:41;4.55;;;2.92;;
78893;SDS011;68282;42.698;23.350;2024-02-04T02:59:07;5.47;;;3.10;;
78893;SDS011;68282;42.698;23.350;2024-02-04T03:01:33;3.63;;;2.42;;
78893;SDS011;68282;42.698;23.350;2024-02-04T03:03:58;3.67;;;2.85;;
78893;SDS011;68282;42.698;23.350;2024-02-04T03:06:24;5.72;;;3.08;;
78893;SDS011;68282;42.698;23.350;2024-02-04T03:08:51;5.38;;;2.67;;
78893;SDS011;68282;42.698;23.350;2024-02-04T03:11:17;5.13;;;2.80;;
78893;SDS011;68282;42.698;23.350;2024-02-04T03:13:42;7.68;;;2.67;;
78893;SDS011;68282;42.698;23.350;2024-02-04T03:16:11;8.13;;;3.50;;
78893;SDS011;68282;42.698;23.350;2024-02-04T03:18:39;6.78;;;3.80;;
78893;SDS011;68282;42.698;23.350;2024-02-04T03:21:11;4.80;;;3.08;;
78893;SDS011;68282;42.698;23.350;2024-02-04T03:23:41;5.90;;;2.60;;
78893;SDS011;68282;42.698;23.350;2024-02-04T03:26:07;6.30;;;3.20;;
78893;SDS011;68282;42.698;23.350;2024-02-04T03:28:33;6.03;;;3.25;;
78893;SDS011;68282;42.698;23.350;2024-02-04T03:31:00;4.75;;;3.10;;
78893;SDS011;68282;42.698;23.350;2024-02-04T03:33:25;5.38;;;2.50;;
78893;SDS011;68282;42.698;23.350;2024-02-04T03:35:51;6.20;;;3.35;;
78893;SDS011;68282;42.698;23.350;2024-02-04T03:38:18;3.83;;;2.50;;
78893;SDS011;68282;42.698;23.350;2024-02-04T03:40:43;4.00;;;2.88;;
78893;SDS011;68282;42.698;23.350;2024-02-04T03:43:10;5.28;;;2.95;;
78893;SDS011;68282;42.698;23.350;2024-02-04T03:45:36;3.30;;;2.45;;
78893;SDS011;68282;42.698;23.350;2024-02-04T03:48:02;4.07;;;2.75;;
78893;SDS011;68282;42.698;23.350;2024-02-04T03:50:28;5.05;;;3.30;;
78893;SDS011;68282;42.698;23.350;2024-02-04T03:52:53;3.30;;;2.25;;
78893;SDS011;68282;42.698;23.350;2024-02-04T03:55:19;4.72;;;2.53;;
78893;SDS011;68282;42.698;23.350;2024-02-04T03:57:44;4.53;;;2.72;;
78893;SDS011;68282;42.698;23.350;2024-02-04T04:00:10;3.80;;;2.80;;
78893;SDS011;68282;42.698;23.350;2024-02-04T04:02:36;4.68;;;2.70;;
78893;SDS011;68282;42.698;23.350;2024-02-04T04:05:02;4.75;;;2.65;;
78893;SDS011;68282;42.698;23.350;2024-02-04T04:07:27;5.35;;;3.28;;
78893;SDS011;68282;42.698;23.350;2024-02-04T04:09:53;5.90;;;3.08;;
78893;SDS011;68282;42.698;23.350;2024-02-04T04:12:19;4.72;;;2.85;;
78893;SDS011;68282;42.698;23.350;2024-02-04T04:14:44;3.67;;;2.55;;
78893;SDS011;68282;42.698;23.350;2024-02-04T04:17:10;3.80;;;2.50;;
78893;SDS011;68282;42.698;23.350;2024-02-04T04:19:35;3.83;;;2.53;;
78893;SDS011;68282;42.698;23.350;2024-02-04T04:22:02;3.88;;;2.50;;
78893;SDS011;68282;42.698;23.350;2024-02-04T04:24:28;3.65;;;2.53;;
78893;SDS011;68282;42.698;23.350;2024-02-04T04:26:54;4.22;;;2.90;;
78893;SDS011;68282;42.698;23.350;2024-02-04T04:29:20;6.63;;;3.13;;
78893;SDS011;68282;42.698;23.350;2024-02-04T04:31:45;5.53;;;2.97;;
78893;SDS011;68282;42.698;23.350;2024-02-04T04:34:11;6.22;;;2.88;;
78893;SDS011;68282;42.698;23.350;2024-02-04T04:36:38;4.95;;;2.88;;
78893;SDS011;68282;42.698;23.350;2024-02-04T04:39:04;3.65;;;2.35;;
78893;SDS011;68282;42.698;23.350;2024-02-04T04:41:30;6.93;;;3.28;;
78893;SDS011;68282;42.698;23.350;2024-02-04T04:43:55;4.75;;;2.90;;
78893;SDS011;68282;42.698;23.350;2024-02-04T04:46:21;4.18;;;2.80;;
78893;SDS011;68282;42.698;23.350;2024-02-04T04:48:47;3.42;;;2.53;;
78893;SDS011;68282;42.698;23.350;2024-02-04T04:51:12;4.75;;;2.80;;
78893;SDS011;68282;42.698;23.350;2024-02-04T04:53:38;4.43;;;2.65;;
78893;SDS011;68282;42.698;23.350;2024-02-04T04:56:04;7.32;;;2.92;;
78893;SDS011;68282;42.698;23.350;2024-02-04T04:58:30;4.55;;;2.83;;
78893;SDS011;68282;42.698;23.350;2024-02-04T05:00:55;7.03;;;3.30;;
78893;SDS011;68282;42.698;23.350;2024-02-04T05:03:21;4.32;;;2.90;;
78893;SDS011;68282;42.698;23.350;2024-02-04T05:05:46;3.05;;;2.03;;
78893;SDS011;68282;42.698;23.350;2024-02-04T05:08:13;6.68;;;2.75;;
78893;SDS011;68282;42.698;23.350;2024-02-04T05:10:40;4.07;;;2.38;;
78893;SDS011;68282;42.698;23.350;2024-02-04T05:13:05;4.30;;;2.58;;
78893;SDS011;68282;42.698;23.350;2024-02-04T05:15:32;4.15;;;3.05;;
78893;SDS011;68282;42.698;23.350;2024-02-04T05:17:59;6.20;;;2.90;;
78893;SDS011;68282;42.698;23.350;2024-02-04T05:20:25;5.68;;;2.60;;
78893;SDS011;68282;42.698;23.350;2024-02-04T05:22:51;6.15;;;2.83;;
78893;SDS011;68282;42.698;23.350;2024-02-04T05:25:16;3.75;;;2.33;;
78893;SDS011;68282;42.698;23.350;2024-02-04T05:27:42;4.70;;;2.70;;
78893;SDS011;68282;42.698;23.350;2024-02-04T05:30:07;5.05;;;3.35;;
78893;SDS011;68282;42.698;23.350;2024-02-04T05:32:33;3.90;;;2.70;;
78893;SDS011;68282;42.698;23.350;2024-02-04T05:35:00;3.92;;;2.80;;
78893;SDS011;68282;42.698;23.350;2024-02-04T05:37:25;4.30;;;2.65;;
78893;SDS011;68282;42.698;23.350;2024-02-04T05:39:51;6.40;;;3.17;;
78893;SDS011;68282;42.698;23.350;2024-02-04T05:42:16;5.68;;;3.05;;
78893;SDS011;68282;42.698;23.350;2024-02-04T05:44:42;9.38;;;3.25;;
78893;SDS011;68282;42.698;23.350;2024-02-04T05:47:07;4.60;;;2.88;;
78893;SDS011;68282;42.698;23.350;2024-02-04T05:49:33;5.43;;;2.92;;
78893;SDS011;68282;42.698;23.350;2024-02-04T05:51:58;5.05;;;3.20;;
78893;SDS011;68282;42.698;23.350;2024-02-04T05:54:24;6.28;;;2.75;;
78893;SDS011;68282;42.698;23.350;2024-02-04T05:56:49;8.43;;;3.85;;
78893;SDS011;68282;42.698;23.350;2024-02-04T05:59:15;4.82;;;3.22;;
78893;SDS011;68282;42.698;23.350;2024-02-04T06:01:41;6.80;;;3.83;;
78893;SDS011;68282;42.698;23.350;2024-02-04T06:04:07;5.13;;;2.85;;
78893;SDS011;68282;42.698;23.350;2024-02-04T06:06:33;5.47;;;3.78;;
78893;SDS011;68282;42.698;23.350;2024-02-04T06:08:58;5.55;;;3.67;;
78893;SDS011;68282;42.698;23.350;2024-02-04T06:11:27;8.50;;;3.65;;
78893;SDS011;68282;42.698;23.350;2024-02-04T06:13:53;6.90;;;3.78;;
78893;SDS011;68282;42.698;23.350;2024-02-04T06:16:19;6.03;;;3.28;;
78893;SDS011;68282;42.698;23.350;2024-02-04T06:18:44;6.22;;;3.78;;
78893;SDS011;68282;42.698;23.350;2024-02-04T06:21:10;6.47;;;3.65;;
78893;SDS011;68282;42.698;23.350;2024-02-04T06:23:35;8.27;;;3.72;;
78893;SDS011;68282;42.698;23.350;2024-02-04T06:26:04;8.98;;;4.18;;
78893;SDS011;68282;42.698;23.350;2024-02-04T06:28:30;6.00;;;3.25;;
78893;SDS011;68282;42.698;23.350;2024-02-04T06:30:55;4.68;;;2.60;;
78893;SDS011;68282;42.698;23.350;2024-02-04T06:33:21;4.93;;;3.78;;
78893;SDS011;68282;42.698;23.350;2024-02-04T06:35:48;5.80;;;3.85;;
78893;SDS011;68282;42.698;23.350;2024-02-04T06:38:13;7.15;;;3.72;;
78893;SDS011;68282;42.698;23.350;2024-02-04T06:40:39;6.15;;;3.63;;
78893;SDS011;68282;42.698;23.350;2024-02-04T06:43:04;5.22;;;3.38;;
78893;SDS011;68282;42.698;23.350;2024-02-04T06:45:30;6.55;;;3.30;;
78893;SDS011;68282;42.698;23.350;2024-02-04T06:47:55;6.05;;;3.33;;
78893;SDS011;68282;42.698;23.350;2024-02-04T06:50:21;4.18;;;3.00;;
78893;SDS011;68282;42.698;23.350;2024-02-04T06:52:46;4.60;;;3.33;;
78893;SDS011;68282;42.698;23.350;2024-02-04T06:55:12;6.47;;;3.08;;
78893;SDS011;68282;42.698;23.350;2024-02-04T06:57:37;5.45;;;2.88;;
78893;SDS011;68282;42.698;23.350;2024-02-04T07:00:05;3.58;;;2.60;;
78893;SDS011;68282;42.698;23.350;2024-02-04T07:02:33;7.22;;;3.05;;
78893;SDS011;68282;42.698;23.350;2024-02-04T07:04:59;4.53;;;2.60;;
78893;SDS011;68282;42.698;23.350;2024-02-04T07:07:25;4.15;;;2.92;;
78893;SDS011;68282;42.698;23.350;2024-02-04T07:09:50;5.75;;;2.97;;
78893;SDS011;68282;42.698;23.350;2024-02-04T07:12:16;5.15;;;3.17;;
78893;SDS011;68282;42.698;23.350;2024-02-04T07:14:41;6.30;;;3.17;;
78893;SDS011;68282;42.698;23.350;2024-02-04T07:17:07;5.72;;;2.00;;
78893;SDS011;68282;42.698;23.350;2024-02-04T07:19:32;6.68;;;3.47;;
78893;SDS011;68282;42.698;23.350;2024-02-04T07:21:58;4.20;;;2.63;;
78893;SDS011;68282;42.698;23.350;2024-02-04T07:24:23;4.53;;;2.78;;
78893;SDS011;68282;42.698;23.350;2024-02-04T07:26:49;5.10;;;2.63;;
78893;SDS011;68282;42.698;23.350;2024-02-04T07:29:14;4.57;;;3.22;;
78893;SDS011;68282;42.698;23.350;2024-02-04T07:31:42;6.10;;;3.55;;
78893;SDS011;68282;42.698;23.350;2024-02-04T07:34:07;5.53;;;3.45;;
78893;SDS011;68282;42.698;23.350;2024-02-04T07:36:33;5.68;;;3.20;;
78893;SDS011;68282;42.698;23.350;2024-02-04T07:38:58;4.57;;;2.97;;
78893;SDS011;68282;42.698;23.350;2024-02-04T07:41:24;3.90;;;2.55;;
78893;SDS011;68282;42.698;23.350;2024-02-04T07:43:51;8.38;;;2.75;;
78893;SDS011;68282;42.698;23.350;2024-02-04T07:46:17;3.10;;;1.85;;
78893;SDS011;68282;42.698;23.350;2024-02-04T07:48:44;4.05;;;2.20;;
78893;SDS011;68282;42.698;23.350;2024-02-04T07:51:09;3.83;;;2.25;;
78893;SDS011;68282;42.698;23.350;2024-02-04T07:53:35;6.30;;;2.33;;
78893;SDS011;68282;42.698;23.350;2024-02-04T07:56:01;5.05;;;2.50;;
78893;SDS011;68282;42.698;23.350;2024-02-04T07:58:31;3.88;;;2.65;;
78893;SDS011;68282;42.698;23.350;2024-02-04T08:00:57;4.65;;;3.00;;
78893;SDS011;68282;42.698;23.350;2024-02-04T08:03:23;3.05;;;2.30;;
78893;SDS011;68282;42.698;23.350;2024-02-04T08:05:48;4.15;;;2.88;;
78893;SDS011;68282;42.698;23.350;2024-02-04T08:08:14;3.75;;;2.30;;
78893;SDS011;68282;42.698;23.350;2024-02-04T08:10:41;4.57;;;2.65;;
78893;SDS011;68282;42.698;23.350;2024-02-04T08:13:07;3.42;;;2.28;;
78893;SDS011;68282;42.698;23.350;2024-02-04T08:15:32;4.78;;;2.38;;
78893;SDS011;68282;42.698;23.350;2024-02-04T08:17:58;3.08;;;2.13;;
78893;SDS011;68282;42.698;23.350;2024-02-04T08:20:23;3.90;;;2.22;;
78893;SDS011;68282;42.698;23.350;2024-02-04T08:22:51;5.40;;;2.58;;
78893;SDS011;68282;42.698;23.350;2024-02-04T08:25:17;3.63;;;2.67;;
78893;SDS011;68282;42.698;23.350;2024-02-04T08:27:42;5.82;;;2.60;;
78893;SDS011;68282;42.698;23.350;2024-02-04T08:30:08;4.78;;;2.78;;
78893;SDS011;68282;42.698;23.350;2024-02-04T08:32:37;5.97;;;2.63;;
78893;SDS011;68282;42.698;23.350;2024-02-04T08:35:03;5.43;;;3.15;;
78893;SDS011;68282;42.698;23.350;2024-02-04T08:37:29;4.13;;;2.47;;
78893;SDS011;68282;42.698;23.350;2024-02-04T08:39:55;5.30;;;2.10;;
78893;SDS011;68282;42.698;23.350;2024-02-04T08:42:20;3.70;;;2.40;;
78893;SDS011;68282;42.698;23.350;2024-02-04T08:44:46;4.15;;;2.10;;
78893;SDS011;68282;42.698;23.350;2024-02-04T08:47:12;4.15;;;1.75;;
78893;SDS011;68282;42.698;23.350;2024-02-04T08:49:39;3.42;;;1.90;;
78893;SDS011;68282;42.698;23.350;2024-02-04T08:52:05;5.07;;;2.83;;
78893;SDS011;68282;42.698;23.350;2024-02-04T08:54:32;5.10;;;2.20;;
78893;SDS011;68282;42.698;23.350;2024-02-04T08:56:57;3.60;;;2.10;;
78893;SDS011;68282;42.698;23.350;2024-02-04T08:59:23;2.90;;;1.90;;
78893;SDS011;68282;42.698;23.350;2024-02-04T09:01:49;3.33;;;2.05;;
78893;SDS011;68282;42.698;23.350;2024-02-04T09:04:15;3.17;;;1.60;;
78893;SDS011;68282;42.698;23.350;2024-02-04T09:06:41;2.83;;;1.73;;
78893;SDS011;68282;42.698;23.350;2024-02-04T09:09:06;2.45;;;1.70;;
78893;SDS011;68282;42.698;23.350;2024-02-04T09:11:34;4.20;;;1.63;;
78893;SDS011;68282;42.698;23.350;2024-02-04T09:14:00;2.80;;;1.73;;
78893;SDS011;68282;42.698;23.350;2024-02-04T09:16:25;2.63;;;1.63;;
78893;SDS011;68282;42.698;23.350;2024-02-04T09:18:50;4.82;;;1.63;;
78893;SDS011;68282;42.698;23.350;2024-02-04T09:21:16;4.13;;;2.42;;
78893;SDS011;68282;42.698;23.350;2024-02-04T09:23:41;3.75;;;2.15;;
78893;SDS011;68282;42.698;23.350;2024-02-04T09:26:07;2.70;;;1.75;;
78893;SDS011;68282;42.698;23.350;2024-02-04T09:28:32;2.95;;;1.95;;
78893;SDS011;68282;42.698;23.350;2024-02-04T09:30:58;2.53;;;1.48;;
78893;SDS011;68282;42.698;23.350;2024-02-04T09:33:24;5.10;;;2.28;;
78893;SDS011;68282;42.698;23.350;2024-02-04T09:35:50;3.30;;;1.95;;
78893;SDS011;68282;42.698;23.350;2024-02-04T09:38:15;4.07;;;1.40;;
78893;SDS011;68282;42.698;23.350;2024-02-04T09:40:41;3.90;;;2.00;;
78893;SDS011;68282;42.698;23.350;2024-02-04T09:43:06;4.80;;;1.90;;
78893;SDS011;68282;42.698;23.350;2024-02-04T09:45:33;6.32;;;2.17;;
78893;SDS011;68282;42.698;23.350;2024-02-04T09:48:00;3.60;;;2.22;;
78893;SDS011;68282;42.698;23.350;2024-02-04T09:50:26;2.83;;;2.22;;
78893;SDS011;68282;42.698;23.350;2024-02-04T09:52:53;4.45;;;2.70;;
78893;SDS011;68282;42.698;23.350;2024-02-04T09:55:25;5.20;;;2.05;;
78893;SDS011;68282;42.698;23.350;2024-02-04T09:57:51;4.40;;;2.15;;
78893;SDS011;68282;42.698;23.350;2024-02-04T10:00:18;2.97;;;2.13;;
78893;SDS011;68282;42.698;23.350;2024-02-04T10:02:45;3.80;;;2.33;;
78893;SDS011;68282;42.698;23.350;2024-02-04T10:05:12;3.28;;;2.05;;
78893;SDS011;68282;42.698;23.350;2024-02-04T10:07:38;3.22;;;1.85;;
78893;SDS011;68282;42.698;23.350;2024-02-04T10:10:04;2.08;;;1.60;;
78893;SDS011;68282;42.698;23.350;2024-02-04T10:12:32;2.95;;;2.00;;
78893;SDS011;68282;42.698;23.350;2024-02-04T10:15:00;4.55;;;2.00;;
78893;SDS011;68282;42.698;23.350;2024-02-04T10:17:27;3.80;;;1.77;;
78893;SDS011;68282;42.698;23.350;2024-02-04T10:19:54;3.08;;;1.80;;
78893;SDS011;68282;42.698;23.350;2024-02-04T10:22:19;3.00;;;2.00;;
78893;SDS011;68282;42.698;23.350;2024-02-04T10:24:45;3.60;;;2.08;;
78893;SDS011;68282;42.698;23.350;2024-02-04T10:27:17;3.45;;;2.10;;
78893;SDS011;68282;42.698;23.350;2024-02-04T10:29:42;4.68;;;2.72;;
78893;SDS011;68282;42.698;23.350;2024-02-04T10:32:08;4.25;;;2.80;;
78893;SDS011;68282;42.698;23.350;2024-02-04T10:34:37;5.93;;;3.10;;
78893;SDS011;68282;42.698;23.350;2024-02-04T10:37:03;4.80;;;2.75;;
78893;SDS011;68282;42.698;23.350;2024-02-04T10:39:28;4.15;;;2.20;;
78893;SDS011;68282;42.698;23.350;2024-02-04T10:41:54;6.03;;;2.53;;
78893;SDS011;68282;42.698;23.350;2024-02-04T10:44:26;4.15;;;2.53;;
78893;SDS011;68282;42.698;23.350;2024-02-04T10:46:53;3.42;;;1.55;;
78893;SDS011;68282;42.698;23.350;2024-02-04T10:49:20;5.43;;;2.72;;
78893;SDS011;68282;42.698;23.350;2024-02-04T10:51:50;3.85;;;2.50;;
78893;SDS011;68282;42.698;23.350;2024-02-04T10:54:17;3.88;;;1.90;;
78893;SDS011;68282;42.698;23.350;2024-02-04T10:56:52;2.80;;;1.85;;
78893;SDS011;68282;42.698;23.350;2024-02-04T10:59:22;3.35;;;2.17;;
78893;SDS011;68282;42.698;23.350;2024-02-04T11:01:50;2.85;;;1.92;;
78893;SDS011;68282;42.698;23.350;2024-02-04T11:04:16;4.15;;;2.13;;
78893;SDS011;68282;42.698;23.350;2024-02-04T11:06:43;3.20;;;2.00;;
78893;SDS011;68282;42.698;23.350;2024-02-04T11:09:11;3.38;;;1.95;;
78893;SDS011;68282;42.698;23.350;2024-02-04T11:11:37;4.20;;;2.20;;
78893;SDS011;68282;42.698;23.350;2024-02-04T11:14:05;8.05;;;2.10;;
78893;SDS011;68282;42.698;23.350;2024-02-04T11:19:47;5.20;;;1.80;;
78893;SDS011;68282;42.698;23.350;2024-02-04T11:22:30;3.88;;;2.20;;
78893;SDS011;68282;42.698;23.350;2024-02-04T11:27:51;3.30;;;1.85;;
78893;SDS011;68282;42.698;23.350;2024-02-04T11:30:18;4.85;;;2.22;;
78893;SDS011;68282;42.698;23.350;2024-02-04T11:32:44;2.47;;;1.85;;
78893;SDS011;68282;42.698;23.350;2024-02-04T11:35:12;4.03;;;2.10;;
78893;SDS011;68282;42.698;23.350;2024-02-04T11:37:39;3.22;;;1.95;;
78893;SDS011;68282;42.698;23.350;2024-02-04T11:40:07;2.45;;;2.05;;
78893;SDS011;68282;42.698;23.350;2024-02-04T11:42:33;3.20;;;2.03;;
78893;SDS011;68282;42.698;23.350;2024-02-04T11:45:11;3.40;;;2.22;;
78893;SDS011;68282;42.698;23.350;2024-02-04T11:47:38;3.67;;;2.28;;
78893;SDS011;68282;42.698;23.350;2024-02-04T11:50:06;2.80;;;2.30;;
78893;SDS011;68282;42.698;23.350;2024-02-04T11:52:34;2.33;;;1.83;;
78893;SDS011;68282;42.698;23.350;2024-02-04T11:55:00;3.17;;;2.08;;
78893;SDS011;68282;42.698;23.350;2024-02-04T11:57:25;4.88;;;2.35;;
78893;SDS011;68282;42.698;23.350;2024-02-04T11:59:52;2.85;;;1.90;;
78893;SDS011;68282;42.698;23.350;2024-02-04T12:02:23;3.38;;;2.10;;
78893;SDS011;68282;42.698;23.350;2024-02-04T12:04:49;2.63;;;1.88;;
78893;SDS011;68282;42.698;23.350;2024-02-04T12:07:14;3.25;;;2.35;;
78893;SDS011;68282;42.698;23.350;2024-02-04T12:09:42;3.40;;;2.45;;
78893;SDS011;68282;42.698;23.350;2024-02-04T12:12:08;3.20;;;2.17;;
78893;SDS011;68282;42.698;23.350;2024-02-04T12:14:38;3.83;;;2.30;;
78893;SDS011;68282;42.698;23.350;2024-02-04T12:17:09;11.73;;;2.40;;
78893;SDS011;68282;42.698;23.350;2024-02-04T12:19:35;3.30;;;2.20;;
78893;SDS011;68282;42.698;23.350;2024-02-04T12:22:01;6.03;;;2.40;;
78893;SDS011;68282;42.698;23.350;2024-02-04T12:24:33;3.85;;;2.40;;
78893;SDS011;68282;42.698;23.350;2024-02-04T12:26:58;6.20;;;3.03;;
78893;SDS011;68282;42.698;23.350;2024-02-04T12:29:25;4.15;;;2.58;;
78893;SDS011;68282;42.698;23.350;2024-02-04T12:32:01;3.63;;;2.33;;
78893;SDS011;68282;42.698;23.350;2024-02-04T12:34:30;2.65;;;1.90;;
78893;SDS011;68282;42.698;23.350;2024-02-04T12:36:59;3.78;;;2.00;;
78893;SDS011;68282;42.698;23.350;2024-02-04T12:39:26;1.90;;;1.48;;
78893;SDS011;68282;42.698;23.350;2024-02-04T12:41:51;2.50;;;1.73;;
78893;SDS011;68282;42.698;23.350;2024-02-04T12:44:18;3.30;;;2.30;;
78893;SDS011;68282;42.698;23.350;2024-02-04T12:46:43;3.55;;;2.22;;
78893;SDS011;68282;42.698;23.350;2024-02-04T12:49:09;4.50;;;2.47;;
78893;SDS011;68282;42.698;23.350;2024-02-04T12:51:36;3.75;;;2.22;;
78893;SDS011;68282;42.698;23.350;2024-02-04T12:56:40;3.53;;;2.20;;
78893;SDS011;68282;42.698;23.350;2024-02-04T12:59:09;3.95;;;2.75;;
78893;SDS011;68282;42.698;23.350;2024-02-04T13:01:38;3.92;;;2.40;;
78893;SDS011;68282;42.698;23.350;2024-02-04T13:04:04;3.05;;;2.15;;
78893;SDS011;68282;42.698;23.350;2024-02-04T13:06:35;4.60;;;2.60;;
78893;SDS011;68282;42.698;23.350;2024-02-04T13:09:03;3.35;;;2.38;;
78893;SDS011;68282;42.698;23.350;2024-02-04T13:11:31;3.20;;;2.28;;
78893;SDS011;68282;42.698;23.350;2024-02-04T13:13:56;3.88;;;2.35;;
78893;SDS011;68282;42.698;23.350;2024-02-04T13:16:23;4.00;;;2.30;;
78893;SDS011;68282;42.698;23.350;2024-02-04T13:18:53;3.00;;;2.20;;
78893;SDS011;68282;42.698;23.350;2024-02-04T13:21:19;2.53;;;1.98;;
78893;SDS011;68282;42.698;23.350;2024-02-04T13:23:47;3.63;;;2.13;;
78893;SDS011;68282;42.698;23.350;2024-02-04T13:26:16;4.63;;;2.00;;
78893;SDS011;68282;42.698;23.350;2024-02-04T13:28:43;3.50;;;2.10;;
78893;SDS011;68282;42.698;23.350;2024-02-04T13:31:09;3.67;;;2.00;;
78893;SDS011;68282;42.698;23.350;2024-02-04T13:33:38;3.70;;;2.05;;
78893;SDS011;68282;42.698;23.350;2024-02-04T13:36:04;4.20;;;1.90;;
78893;SDS011;68282;42.698;23.350;2024-02-04T13:38:33;2.53;;;1.70;;
78893;SDS011;68282;42.698;23.350;2024-02-04T13:40:59;5.25;;;2.20;;
78893;SDS011;68282;42.698;23.350;2024-02-04T13:43:25;3.35;;;2.30;;
78893;SDS011;68282;42.698;23.350;2024-02-04T13:45:51;3.00;;;2.00;;
78893;SDS011;68282;42.698;23.350;2024-02-04T13:48:17;3.03;;;1.67;;
78893;SDS011;68282;42.698;23.350;2024-02-04T13:50:44;2.72;;;1.70;;
78893;SDS011;68282;42.698;23.350;2024-02-04T13:53:10;4.15;;;2.10;;
78893;SDS011;68282;42.698;23.350;2024-02-04T13:55:36;2.95;;;2.50;;
78893;SDS011;68282;42.698;23.350;2024-02-04T13:58:02;3.17;;;1.92;;
78893;SDS011;68282;42.698;23.350;2024-02-04T14:00:28;3.55;;;2.25;;
78893;SDS011;68282;42.698;23.350;2024-02-04T14:02:54;5.60;;;2.13;;
78893;SDS011;68282;42.698;23.350;2024-02-04T14:05:19;3.78;;;2.13;;
78893;SDS011;68282;42.698;23.350;2024-02-04T14:07:45;2.85;;;2.03;;
78893;SDS011;68282;42.698;23.350;2024-02-04T14:10:10;5.22;;;2.47;;
78893;SDS011;68282;42.698;23.350;2024-02-04T14:12:37;3.72;;;2.22;;
78893;SDS011;68282;42.698;23.350;2024-02-04T14:15:05;3.75;;;2.40;;
78893;SDS011;68282;42.698;23.350;2024-02-04T14:17:32;2.78;;;1.98;;
78893;SDS011;68282;42.698;23.350;2024-02-04T14:19:57;5.50;;;2.60;;
78893;SDS011;68282;42.698;23.350;2024-02-04T14:22:24;5.43;;;2.60;;
78893;SDS011;68282;42.698;23.350;2024-02-04T14:24:50;4.32;;;2.45;;
78893;SDS011;68282;42.698;23.350;2024-02-04T14:27:16;2.92;;;1.95;;
78893;SDS011;68282;42.698;23.350;2024-02-04T14:29:41;3.22;;;1.95;;
78893;SDS011;68282;42.698;23.350;2024-02-04T14:32:07;3.00;;;2.20;;
78893;SDS011;68282;42.698;23.350;2024-02-04T14:34:34;5.30;;;2.97;;
78893;SDS011;68282;42.698;23.350;2024-02-04T14:37:01;4.07;;;2.58;;
78893;SDS011;68282;42.698;23.350;2024-02-04T14:39:26;2.60;;;1.92;;
78893;SDS011;68282;42.698;23.350;2024-02-04T14:41:52;3.22;;;1.90;;
78893;SDS011;68282;42.698;23.350;2024-02-04T14:44:19;6.82;;;3.72;;
78893;SDS011;68282;42.698;23.350;2024-02-04T14:46:46;4.05;;;2.22;;